Terminal Aerodrome Forecast
Issued by NWS Newport/Morehead City, NC

Home | Current Version | Previous Version | Graphics & Text | Print | Product List | Glossary On
Versions: 1 2 3 4 5 6 7 8 9 10 11 12 13 14 15
000
FTUS42 KMHX 192324
TAFEWN
TAF
KEWN 192324Z 2000/2024 VRB04KT P6SM SCT050
     FM200900 VRB03KT 5SM BR SCT005
     FM201300 15006KT P6SM SCT050=

USA.gov is the U.S. government's official web portal to all federal, state and local government web resources and services.